Compton, United Kingdom
Current Conditions -  °F | °C
As of 8:50 PM on Tuesday 27 Jan 2015 (Local Time) from EGHI Reporting Station
Broken Clouds Broken Clouds  
Wind Chill:   Ceiling: 3200
Heat Index:   Visibility: 6mi
Dew Point:   Wind: 5mph
Humidity: 76%   Direction: 250°WSW
Pressure: 30.24"   Gusts: NA
Location:  51.02°N, 1.34°W
Report Text: EGHI 272050Z 25004KT 9999 BKN032 06/02 Q1024
Loading
Personal Weather Stations






























Interactive Weather Map New forecast layout! Learn more

10-Day Weather Forecast

Advertisements
Track Severe Weather on mobile